sensor_id;sensor_type;location;lat;lon;timestamp;P1;durP1;ratioP1;P2;durP2;ratioP2
40459;SDS011;26164;51.138;16.952;2023-01-30T00:00:33;34.85;;;17.50;;
40459;SDS011;26164;51.138;16.952;2023-01-30T00:03:19;35.40;;;17.10;;
40459;SDS011;26164;51.138;16.952;2023-01-30T00:05:45;31.92;;;15.38;;
40459;SDS011;26164;51.138;16.952;2023-01-30T00:08:12;34.65;;;16.92;;
40459;SDS011;26164;51.138;16.952;2023-01-30T00:10:37;35.58;;;16.55;;
40459;SDS011;26164;51.138;16.952;2023-01-30T00:13:03;34.40;;;16.63;;
40459;SDS011;26164;51.138;16.952;2023-01-30T00:15:29;36.78;;;17.55;;
40459;SDS011;26164;51.138;16.952;2023-01-30T00:17:55;36.65;;;17.27;;
40459;SDS011;26164;51.138;16.952;2023-01-30T00:20:21;33.60;;;16.40;;
40459;SDS011;26164;51.138;16.952;2023-01-30T00:22:47;34.10;;;16.38;;
40459;SDS011;26164;51.138;16.952;2023-01-30T00:25:14;32.70;;;17.23;;
40459;SDS011;26164;51.138;16.952;2023-01-30T00:27:39;34.38;;;16.95;;
40459;SDS011;26164;51.138;16.952;2023-01-30T00:30:05;31.48;;;15.45;;
40459;SDS011;26164;51.138;16.952;2023-01-30T00:32:32;30.38;;;16.13;;
40459;SDS011;26164;51.138;16.952;2023-01-30T00:34:57;30.73;;;15.85;;
40459;SDS011;26164;51.138;16.952;2023-01-30T00:37:24;33.05;;;15.30;;
40459;SDS011;26164;51.138;16.952;2023-01-30T00:39:49;34.83;;;16.90;;
40459;SDS011;26164;51.138;16.952;2023-01-30T00:42:15;30.08;;;14.45;;
40459;SDS011;26164;51.138;16.952;2023-01-30T00:45:00;25.65;;;13.18;;
40459;SDS011;26164;51.138;16.952;2023-01-30T00:47:44;25.75;;;13.30;;
40459;SDS011;26164;51.138;16.952;2023-01-30T00:50:12;27.30;;;13.07;;
40459;SDS011;26164;51.138;16.952;2023-01-30T00:52:39;32.90;;;14.50;;
40459;SDS011;26164;51.138;16.952;2023-01-30T00:55:05;25.75;;;13.90;;
40459;SDS011;26164;51.138;16.952;2023-01-30T00:57:31;27.92;;;14.02;;
40459;SDS011;26164;51.138;16.952;2023-01-30T00:59:56;30.55;;;15.13;;
40459;SDS011;26164;51.138;16.952;2023-01-30T01:02:23;30.58;;;14.40;;
40459;SDS011;26164;51.138;16.952;2023-01-30T01:04:48;32.72;;;15.18;;
40459;SDS011;26164;51.138;16.952;2023-01-30T01:07:14;33.22;;;15.50;;
40459;SDS011;26164;51.138;16.952;2023-01-30T01:09:40;31.10;;;14.90;;
40459;SDS011;26164;51.138;16.952;2023-01-30T01:12:06;27.33;;;14.23;;
40459;SDS011;26164;51.138;16.952;2023-01-30T01:14:33;23.10;;;11.70;;
40459;SDS011;26164;51.138;16.952;2023-01-30T01:16:59;32.35;;;15.50;;
40459;SDS011;26164;51.138;16.952;2023-01-30T01:19:25;28.98;;;14.50;;
40459;SDS011;26164;51.138;16.952;2023-01-30T01:21:51;28.48;;;14.63;;
40459;SDS011;26164;51.138;16.952;2023-01-30T01:24:17;28.00;;;15.07;;
40459;SDS011;26164;51.138;16.952;2023-01-30T01:26:43;29.95;;;15.02;;
40459;SDS011;26164;51.138;16.952;2023-01-30T01:29:11;29.77;;;14.57;;
40459;SDS011;26164;51.138;16.952;2023-01-30T01:31:38;28.85;;;14.35;;
40459;SDS011;26164;51.138;16.952;2023-01-30T01:34:04;31.35;;;14.57;;
40459;SDS011;26164;51.138;16.952;2023-01-30T01:36:30;28.00;;;14.32;;
40459;SDS011;26164;51.138;16.952;2023-01-30T01:38:55;25.88;;;13.45;;
40459;SDS011;26164;51.138;16.952;2023-01-30T01:41:21;25.88;;;13.32;;
40459;SDS011;26164;51.138;16.952;2023-01-30T01:49:26;27.27;;;13.82;;
40459;SDS011;26164;51.138;16.952;2023-01-30T01:51:59;26.60;;;13.35;;
40459;SDS011;26164;51.138;16.952;2023-01-30T01:54:40;24.00;;;12.77;;
40459;SDS011;26164;51.138;16.952;2023-01-30T01:57:15;26.67;;;13.65;;
40459;SDS011;26164;51.138;16.952;2023-01-30T01:59:47;29.85;;;13.93;;
40459;SDS011;26164;51.138;16.952;2023-01-30T02:02:26;26.77;;;13.90;;
40459;SDS011;26164;51.138;16.952;2023-01-30T02:04:53;23.27;;;12.70;;
40459;SDS011;26164;51.138;16.952;2023-01-30T02:07:28;26.42;;;13.30;;
40459;SDS011;26164;51.138;16.952;2023-01-30T02:09:59;25.48;;;14.02;;
40459;SDS011;26164;51.138;16.952;2023-01-30T02:12:25;24.58;;;13.25;;
40459;SDS011;26164;51.138;16.952;2023-01-30T02:14:52;27.80;;;13.73;;
40459;SDS011;26164;51.138;16.952;2023-01-30T02:17:21;27.10;;;13.60;;
40459;SDS011;26164;51.138;16.952;2023-01-30T02:19:59;26.77;;;13.80;;
40459;SDS011;26164;51.138;16.952;2023-01-30T02:22:35;26.95;;;13.95;;
40459;SDS011;26164;51.138;16.952;2023-01-30T02:28:34;26.10;;;13.93;;
40459;SDS011;26164;51.138;16.952;2023-01-30T02:31:26;24.30;;;13.07;;
40459;SDS011;26164;51.138;16.952;2023-01-30T02:34:27;27.75;;;13.93;;
40459;SDS011;26164;51.138;16.952;2023-01-30T02:40:04;30.77;;;15.02;;
40459;SDS011;26164;51.138;16.952;2023-01-30T02:45:28;26.33;;;13.80;;
40459;SDS011;26164;51.138;16.952;2023-01-30T02:48:05;26.30;;;13.95;;
40459;SDS011;26164;51.138;16.952;2023-01-30T02:53:00;26.90;;;15.07;;
40459;SDS011;26164;51.138;16.952;2023-01-30T02:55:28;27.65;;;14.80;;
40459;SDS011;26164;51.138;16.952;2023-01-30T02:57:54;23.63;;;13.27;;
40459;SDS011;26164;51.138;16.952;2023-01-30T03:00:22;26.42;;;13.85;;
40459;SDS011;26164;51.138;16.952;2023-01-30T03:02:54;24.85;;;13.48;;
40459;SDS011;26164;51.138;16.952;2023-01-30T03:08:35;29.63;;;14.02;;
40459;SDS011;26164;51.138;16.952;2023-01-30T03:11:16;27.55;;;13.57;;
40459;SDS011;26164;51.138;16.952;2023-01-30T03:13:52;26.33;;;13.75;;
40459;SDS011;26164;51.138;16.952;2023-01-30T03:16:26;25.45;;;13.73;;
40459;SDS011;26164;51.138;16.952;2023-01-30T03:19:00;24.02;;;13.43;;
40459;SDS011;26164;51.138;16.952;2023-01-30T03:21:28;21.60;;;12.73;;
40459;SDS011;26164;51.138;16.952;2023-01-30T03:23:53;27.60;;;13.15;;
40459;SDS011;26164;51.138;16.952;2023-01-30T03:26:21;25.80;;;13.55;;
40459;SDS011;26164;51.138;16.952;2023-01-30T03:28:50;29.65;;;13.52;;
40459;SDS011;26164;51.138;16.952;2023-01-30T03:31:18;26.23;;;12.85;;
40459;SDS011;26164;51.138;16.952;2023-01-30T03:33:44;18.20;;;10.38;;
40459;SDS011;26164;51.138;16.952;2023-01-30T03:36:11;22.77;;;11.88;;
40459;SDS011;26164;51.138;16.952;2023-01-30T03:38:36;22.17;;;11.90;;
40459;SDS011;26164;51.138;16.952;2023-01-30T03:41:03;22.70;;;12.48;;
40459;SDS011;26164;51.138;16.952;2023-01-30T03:43:30;21.20;;;12.23;;
40459;SDS011;26164;51.138;16.952;2023-01-30T03:45:56;22.15;;;12.38;;
40459;SDS011;26164;51.138;16.952;2023-01-30T03:48:22;23.13;;;11.77;;
40459;SDS011;26164;51.138;16.952;2023-01-30T03:50:48;21.27;;;11.98;;
40459;SDS011;26164;51.138;16.952;2023-01-30T03:53:14;24.10;;;12.57;;
40459;SDS011;26164;51.138;16.952;2023-01-30T03:55:40;20.85;;;12.20;;
40459;SDS011;26164;51.138;16.952;2023-01-30T03:58:08;21.85;;;12.20;;
40459;SDS011;26164;51.138;16.952;2023-01-30T04:00:34;20.40;;;11.27;;
40459;SDS011;26164;51.138;16.952;2023-01-30T04:03:01;22.90;;;12.70;;
40459;SDS011;26164;51.138;16.952;2023-01-30T04:05:27;22.63;;;12.80;;
40459;SDS011;26164;51.138;16.952;2023-01-30T04:08:00;23.17;;;12.20;;
40459;SDS011;26164;51.138;16.952;2023-01-30T04:10:26;20.88;;;11.25;;
40459;SDS011;26164;51.138;16.952;2023-01-30T04:12:52;19.92;;;12.20;;
40459;SDS011;26164;51.138;16.952;2023-01-30T04:15:18;22.05;;;13.25;;
40459;SDS011;26164;51.138;16.952;2023-01-30T04:18:04;22.20;;;12.52;;
40459;SDS011;26164;51.138;16.952;2023-01-30T04:21:08;21.15;;;11.50;;
40459;SDS011;26164;51.138;16.952;2023-01-30T04:23:37;20.48;;;11.25;;
40459;SDS011;26164;51.138;16.952;2023-01-30T04:26:03;22.27;;;12.18;;
40459;SDS011;26164;51.138;16.952;2023-01-30T04:28:32;22.42;;;12.35;;
40459;SDS011;26164;51.138;16.952;2023-01-30T04:30:58;22.73;;;12.07;;
40459;SDS011;26164;51.138;16.952;2023-01-30T04:33:50;19.75;;;11.45;;
40459;SDS011;26164;51.138;16.952;2023-01-30T04:36:17;21.00;;;11.60;;
40459;SDS011;26164;51.138;16.952;2023-01-30T04:38:44;23.25;;;12.35;;
40459;SDS011;26164;51.138;16.952;2023-01-30T04:41:10;21.13;;;12.50;;
40459;SDS011;26164;51.138;16.952;2023-01-30T04:43:39;19.55;;;11.30;;
40459;SDS011;26164;51.138;16.952;2023-01-30T04:46:10;24.58;;;12.60;;
40459;SDS011;26164;51.138;16.952;2023-01-30T04:48:36;22.52;;;12.02;;
40459;SDS011;26164;51.138;16.952;2023-01-30T04:51:02;23.48;;;12.10;;
40459;SDS011;26164;51.138;16.952;2023-01-30T04:53:28;21.30;;;11.73;;
40459;SDS011;26164;51.138;16.952;2023-01-30T04:55:54;22.48;;;12.48;;
40459;SDS011;26164;51.138;16.952;2023-01-30T04:58:20;19.13;;;11.05;;
40459;SDS011;26164;51.138;16.952;2023-01-30T05:00:46;22.17;;;12.25;;
40459;SDS011;26164;51.138;16.952;2023-01-30T05:03:12;22.05;;;11.80;;
40459;SDS011;26164;51.138;16.952;2023-01-30T05:05:39;20.02;;;11.23;;
40459;SDS011;26164;51.138;16.952;2023-01-30T05:08:07;23.48;;;12.18;;
40459;SDS011;26164;51.138;16.952;2023-01-30T05:10:33;22.27;;;12.63;;
40459;SDS011;26164;51.138;16.952;2023-01-30T05:13:03;27.20;;;12.90;;
40459;SDS011;26164;51.138;16.952;2023-01-30T05:15:30;25.15;;;12.00;;
40459;SDS011;26164;51.138;16.952;2023-01-30T05:17:57;22.50;;;13.13;;
40459;SDS011;26164;51.138;16.952;2023-01-30T05:20:23;23.70;;;13.50;;
40459;SDS011;26164;51.138;16.952;2023-01-30T05:22:49;24.85;;;14.00;;
40459;SDS011;26164;51.138;16.952;2023-01-30T05:25:15;22.73;;;13.02;;
40459;SDS011;26164;51.138;16.952;2023-01-30T05:27:41;22.15;;;12.50;;
40459;SDS011;26164;51.138;16.952;2023-01-30T05:30:09;22.83;;;13.10;;
40459;SDS011;26164;51.138;16.952;2023-01-30T05:32:36;21.20;;;11.95;;
40459;SDS011;26164;51.138;16.952;2023-01-30T05:35:02;25.25;;;13.63;;
40459;SDS011;26164;51.138;16.952;2023-01-30T05:37:28;23.15;;;12.65;;
40459;SDS011;26164;51.138;16.952;2023-01-30T05:39:54;22.05;;;12.38;;
40459;SDS011;26164;51.138;16.952;2023-01-30T05:42:19;23.20;;;12.68;;
40459;SDS011;26164;51.138;16.952;2023-01-30T05:44:45;24.58;;;12.70;;
40459;SDS011;26164;51.138;16.952;2023-01-30T05:47:11;22.75;;;12.60;;
40459;SDS011;26164;51.138;16.952;2023-01-30T05:49:37;23.50;;;12.52;;
40459;SDS011;26164;51.138;16.952;2023-01-30T05:52:02;21.80;;;12.65;;
40459;SDS011;26164;51.138;16.952;2023-01-30T05:54:28;22.70;;;12.10;;
40459;SDS011;26164;51.138;16.952;2023-01-30T05:56:54;25.58;;;13.13;;
40459;SDS011;26164;51.138;16.952;2023-01-30T05:59:20;23.40;;;12.80;;
40459;SDS011;26164;51.138;16.952;2023-01-30T06:01:46;24.30;;;12.82;;
40459;SDS011;26164;51.138;16.952;2023-01-30T06:04:12;22.17;;;12.45;;
40459;SDS011;26164;51.138;16.952;2023-01-30T06:06:37;24.45;;;12.80;;
40459;SDS011;26164;51.138;16.952;2023-01-30T06:09:03;24.10;;;13.85;;
40459;SDS011;26164;51.138;16.952;2023-01-30T06:11:29;24.88;;;13.00;;
40459;SDS011;26164;51.138;16.952;2023-01-30T06:13:55;27.67;;;13.55;;
40459;SDS011;26164;51.138;16.952;2023-01-30T06:16:20;24.42;;;11.90;;
40459;SDS011;26164;51.138;16.952;2023-01-30T06:18:46;23.38;;;12.18;;
40459;SDS011;26164;51.138;16.952;2023-01-30T06:21:12;23.77;;;12.15;;
40459;SDS011;26164;51.138;16.952;2023-01-30T06:23:40;22.42;;;12.35;;
40459;SDS011;26164;51.138;16.952;2023-01-30T06:26:06;21.80;;;12.20;;
40459;SDS011;26164;51.138;16.952;2023-01-30T06:28:34;22.90;;;12.05;;
40459;SDS011;26164;51.138;16.952;2023-01-30T06:31:00;19.92;;;10.27;;
40459;SDS011;26164;51.138;16.952;2023-01-30T06:33:26;19.55;;;10.65;;
40459;SDS011;26164;51.138;16.952;2023-01-30T06:35:52;19.05;;;11.13;;
40459;SDS011;26164;51.138;16.952;2023-01-30T06:38:18;20.48;;;11.70;;
40459;SDS011;26164;51.138;16.952;2023-01-30T06:40:45;22.35;;;11.63;;
40459;SDS011;26164;51.138;16.952;2023-01-30T06:43:15;23.15;;;12.00;;
40459;SDS011;26164;51.138;16.952;2023-01-30T06:45:41;22.08;;;12.73;;
40459;SDS011;26164;51.138;16.952;2023-01-30T06:48:08;21.70;;;12.73;;
40459;SDS011;26164;51.138;16.952;2023-01-30T06:50:34;18.90;;;11.68;;
40459;SDS011;26164;51.138;16.952;2023-01-30T06:53:02;25.08;;;12.68;;
40459;SDS011;26164;51.138;16.952;2023-01-30T06:55:32;24.48;;;13.07;;
40459;SDS011;26164;51.138;16.952;2023-01-30T06:58:01;22.60;;;12.32;;
40459;SDS011;26164;51.138;16.952;2023-01-30T07:00:31;24.40;;;12.68;;
40459;SDS011;26164;51.138;16.952;2023-01-30T07:02:58;23.38;;;13.23;;
40459;SDS011;26164;51.138;16.952;2023-01-30T07:05:24;24.65;;;14.32;;
40459;SDS011;26164;51.138;16.952;2023-01-30T07:07:50;27.05;;;13.75;;
40459;SDS011;26164;51.138;16.952;2023-01-30T07:10:16;29.52;;;14.00;;
40459;SDS011;26164;51.138;16.952;2023-01-30T07:12:44;22.60;;;13.00;;
40459;SDS011;26164;51.138;16.952;2023-01-30T07:15:10;23.05;;;12.85;;
40459;SDS011;26164;51.138;16.952;2023-01-30T07:17:38;23.05;;;13.63;;
40459;SDS011;26164;51.138;16.952;2023-01-30T07:20:05;24.35;;;14.70;;
40459;SDS011;26164;51.138;16.952;2023-01-30T07:22:31;28.58;;;14.48;;
40459;SDS011;26164;51.138;16.952;2023-01-30T07:24:57;25.00;;;14.00;;
40459;SDS011;26164;51.138;16.952;2023-01-30T07:27:23;27.17;;;14.13;;
40459;SDS011;26164;51.138;16.952;2023-01-30T07:29:48;26.52;;;13.55;;
40459;SDS011;26164;51.138;16.952;2023-01-30T07:32:15;25.13;;;14.48;;
40459;SDS011;26164;51.138;16.952;2023-01-30T07:34:43;27.73;;;15.02;;
40459;SDS011;26164;51.138;16.952;2023-01-30T07:37:09;27.50;;;14.80;;
40459;SDS011;26164;51.138;16.952;2023-01-30T07:39:35;28.13;;;15.93;;
40459;SDS011;26164;51.138;16.952;2023-01-30T07:42:01;32.70;;;16.58;;
40459;SDS011;26164;51.138;16.952;2023-01-30T07:44:27;29.73;;;16.88;;
40459;SDS011;26164;51.138;16.952;2023-01-30T07:46:53;30.52;;;17.17;;
40459;SDS011;26164;51.138;16.952;2023-01-30T07:49:21;32.05;;;17.15;;
40459;SDS011;26164;51.138;16.952;2023-01-30T07:51:47;32.30;;;17.00;;
40459;SDS011;26164;51.138;16.952;2023-01-30T07:54:13;33.63;;;18.20;;
40459;SDS011;26164;51.138;16.952;2023-01-30T07:56:39;35.72;;;17.02;;
40459;SDS011;26164;51.138;16.952;2023-01-30T07:59:04;34.13;;;17.50;;
40459;SDS011;26164;51.138;16.952;2023-01-30T08:01:30;32.65;;;17.17;;
40459;SDS011;26164;51.138;16.952;2023-01-30T08:03:57;31.45;;;16.48;;
40459;SDS011;26164;51.138;16.952;2023-01-30T08:06:23;29.42;;;16.15;;
40459;SDS011;26164;51.138;16.952;2023-01-30T08:08:49;38.00;;;17.05;;
40459;SDS011;26164;51.138;16.952;2023-01-30T08:11:15;30.23;;;15.73;;
40459;SDS011;26164;51.138;16.952;2023-01-30T08:13:42;30.65;;;16.77;;
40459;SDS011;26164;51.138;16.952;2023-01-30T08:16:08;34.63;;;16.52;;
40459;SDS011;26164;51.138;16.952;2023-01-30T08:18:34;32.00;;;15.02;;
40459;SDS011;26164;51.138;16.952;2023-01-30T08:21:00;26.63;;;13.70;;
40459;SDS011;26164;51.138;16.952;2023-01-30T08:23:28;29.23;;;14.95;;
40459;SDS011;26164;51.138;16.952;2023-01-30T08:25:54;29.25;;;14.43;;
40459;SDS011;26164;51.138;16.952;2023-01-30T08:28:21;26.42;;;13.80;;
40459;SDS011;26164;51.138;16.952;2023-01-30T08:30:47;29.30;;;14.18;;
40459;SDS011;26164;51.138;16.952;2023-01-30T08:33:13;28.25;;;12.90;;
40459;SDS011;26164;51.138;16.952;2023-01-30T08:35:40;26.75;;;13.82;;
40459;SDS011;26164;51.138;16.952;2023-01-30T08:38:06;28.55;;;14.65;;
40459;SDS011;26164;51.138;16.952;2023-01-30T08:40:34;25.63;;;13.88;;
40459;SDS011;26164;51.138;16.952;2023-01-30T08:43:00;23.45;;;11.70;;
40459;SDS011;26164;51.138;16.952;2023-01-30T08:45:26;22.60;;;12.30;;
40459;SDS011;26164;51.138;16.952;2023-01-30T08:47:52;23.55;;;12.63;;
40459;SDS011;26164;51.138;16.952;2023-01-30T08:50:24;24.23;;;11.70;;
40459;SDS011;26164;51.138;16.952;2023-01-30T08:52:50;25.92;;;12.80;;
40459;SDS011;26164;51.138;16.952;2023-01-30T08:55:16;21.42;;;12.07;;
40459;SDS011;26164;51.138;16.952;2023-01-30T08:57:43;25.55;;;11.27;;
40459;SDS011;26164;51.138;16.952;2023-01-30T09:00:09;20.48;;;12.10;;
40459;SDS011;26164;51.138;16.952;2023-01-30T09:02:36;25.17;;;12.43;;
40459;SDS011;26164;51.138;16.952;2023-01-30T09:05:03;23.00;;;11.38;;
40459;SDS011;26164;51.138;16.952;2023-01-30T09:07:29;20.10;;;11.70;;
40459;SDS011;26164;51.138;16.952;2023-01-30T09:09:55;21.20;;;11.70;;
40459;SDS011;26164;51.138;16.952;2023-01-30T09:12:21;28.40;;;12.35;;
40459;SDS011;26164;51.138;16.952;2023-01-30T09:14:48;23.90;;;12.48;;
40459;SDS011;26164;51.138;16.952;2023-01-30T09:17:13;18.27;;;9.73;;
40459;SDS011;26164;51.138;16.952;2023-01-30T09:19:39;20.20;;;11.35;;
40459;SDS011;26164;51.138;16.952;2023-01-30T09:22:05;17.65;;;10.13;;
40459;SDS011;26164;51.138;16.952;2023-01-30T09:24:32;16.75;;;10.27;;
40459;SDS011;26164;51.138;16.952;2023-01-30T09:26:58;20.95;;;10.77;;
40459;SDS011;26164;51.138;16.952;2023-01-30T09:29:25;20.10;;;11.20;;
40459;SDS011;26164;51.138;16.952;2023-01-30T09:31:53;21.63;;;10.93;;
40459;SDS011;26164;51.138;16.952;2023-01-30T09:34:21;20.48;;;11.50;;
40459;SDS011;26164;51.138;16.952;2023-01-30T09:36:52;23.80;;;12.07;;
40459;SDS011;26164;51.138;16.952;2023-01-30T09:39:22;19.55;;;11.15;;
40459;SDS011;26164;51.138;16.952;2023-01-30T09:47:27;21.67;;;11.30;;
40459;SDS011;26164;51.138;16.952;2023-01-30T09:53:02;22.38;;;11.68;;
40459;SDS011;26164;51.138;16.952;2023-01-30T09:55:39;24.52;;;10.90;;
40459;SDS011;26164;51.138;16.952;2023-01-30T09:58:21;21.85;;;11.52;;
40459;SDS011;26164;51.138;16.952;2023-01-30T10:00:50;21.27;;;11.80;;
40459;SDS011;26164;51.138;16.952;2023-01-30T10:03:20;31.38;;;12.05;;
40459;SDS011;26164;51.138;16.952;2023-01-30T10:05:53;24.48;;;12.68;;
40459;SDS011;26164;51.138;16.952;2023-01-30T10:14:11;22.33;;;11.55;;
40459;SDS011;26164;51.138;16.952;2023-01-30T10:25:09;22.08;;;11.88;;
40459;SDS011;26164;51.138;16.952;2023-01-30T10:27:52;28.52;;;12.85;;
40459;SDS011;26164;51.138;16.952;2023-01-30T10:30:28;28.27;;;14.05;;
40459;SDS011;26164;51.138;16.952;2023-01-30T10:33:03;19.23;;;10.20;;
40459;SDS011;26164;51.138;16.952;2023-01-30T10:35:35;27.17;;;14.30;;
40459;SDS011;26164;51.138;16.952;2023-01-30T10:38:11;25.83;;;14.98;;
40459;SDS011;26164;51.138;16.952;2023-01-30T10:40:51;31.20;;;14.18;;
40459;SDS011;26164;51.138;16.952;2023-01-30T10:43:41;29.35;;;14.85;;
40459;SDS011;26164;51.138;16.952;2023-01-30T10:51:31;25.27;;;13.15;;
40459;SDS011;26164;51.138;16.952;2023-01-30T10:56:41;24.40;;;12.18;;
40459;SDS011;26164;51.138;16.952;2023-01-30T11:01:49;20.58;;;11.65;;
40459;SDS011;26164;51.138;16.952;2023-01-30T11:04:25;30.55;;;12.27;;
40459;SDS011;26164;51.138;16.952;2023-01-30T11:06:56;22.88;;;11.25;;
40459;SDS011;26164;51.138;16.952;2023-01-30T11:09:38;23.15;;;11.98;;
40459;SDS011;26164;51.138;16.952;2023-01-30T11:12:05;20.58;;;10.57;;
40459;SDS011;26164;51.138;16.952;2023-01-30T11:14:50;19.60;;;10.20;;
40459;SDS011;26164;51.138;16.952;2023-01-30T11:17:34;23.15;;;10.40;;
40459;SDS011;26164;51.138;16.952;2023-01-30T11:20:03;19.42;;;10.50;;
40459;SDS011;26164;51.138;16.952;2023-01-30T11:22:37;17.50;;;8.13;;
40459;SDS011;26164;51.138;16.952;2023-01-30T11:25:13;16.42;;;9.02;;
40459;SDS011;26164;51.138;16.952;2023-01-30T11:27:50;18.30;;;9.55;;
40459;SDS011;26164;51.138;16.952;2023-01-30T11:30:20;17.60;;;9.57;;
40459;SDS011;26164;51.138;16.952;2023-01-30T11:32:50;22.58;;;9.63;;
40459;SDS011;26164;51.138;16.952;2023-01-30T11:35:30;19.70;;;9.43;;
40459;SDS011;26164;51.138;16.952;2023-01-30T11:38:12;20.38;;;8.15;;
40459;SDS011;26164;51.138;16.952;2023-01-30T11:40:46;21.70;;;10.13;;
40459;SDS011;26164;51.138;16.952;2023-01-30T11:43:12;15.80;;;7.78;;
40459;SDS011;26164;51.138;16.952;2023-01-30T11:45:40;20.15;;;8.52;;
40459;SDS011;26164;51.138;16.952;2023-01-30T11:48:16;14.40;;;6.68;;
40459;SDS011;26164;51.138;16.952;2023-01-30T11:50:45;14.43;;;7.47;;
40459;SDS011;26164;51.138;16.952;2023-01-30T11:53:16;14.63;;;7.80;;
40459;SDS011;26164;51.138;16.952;2023-01-30T11:55:50;11.35;;;6.53;;
40459;SDS011;26164;51.138;16.952;2023-01-30T11:58:16;10.02;;;4.60;;
40459;SDS011;26164;51.138;16.952;2023-01-30T12:00:42;7.65;;;4.03;;
40459;SDS011;26164;51.138;16.952;2023-01-30T12:03:13;10.45;;;3.33;;
40459;SDS011;26164;51.138;16.952;2023-01-30T12:05:44;7.15;;;3.65;;
40459;SDS011;26164;51.138;16.952;2023-01-30T12:08:13;7.10;;;3.85;;
40459;SDS011;26164;51.138;16.952;2023-01-30T12:10:46;7.30;;;3.17;;
40459;SDS011;26164;51.138;16.952;2023-01-30T12:16:09;8.65;;;3.88;;
40459;SDS011;26164;51.138;16.952;2023-01-30T12:21:48;9.77;;;3.55;;
40459;SDS011;26164;51.138;16.952;2023-01-30T12:24:30;8.02;;;3.33;;
40459;SDS011;26164;51.138;16.952;2023-01-30T12:33:04;5.80;;;3.50;;
40459;SDS011;26164;51.138;16.952;2023-01-30T12:35:41;6.57;;;3.30;;
40459;SDS011;26164;51.138;16.952;2023-01-30T12:38:17;8.07;;;3.15;;
40459;SDS011;26164;51.138;16.952;2023-01-30T12:49:13;6.65;;;3.47;;
40459;SDS011;26164;51.138;16.952;2023-01-30T12:57:38;8.95;;;3.50;;
40459;SDS011;26164;51.138;16.952;2023-01-30T13:03:15;10.05;;;3.30;;
40459;SDS011;26164;51.138;16.952;2023-01-30T13:06:07;7.40;;;3.08;;
40459;SDS011;26164;51.138;16.952;2023-01-30T13:11:41;8.55;;;3.80;;
40459;SDS011;26164;51.138;16.952;2023-01-30T13:20:16;8.95;;;3.00;;
40459;SDS011;26164;51.138;16.952;2023-01-30T13:23:03;8.63;;;2.85;;
40459;SDS011;26164;51.138;16.952;2023-01-30T13:25:40;8.55;;;4.05;;
40459;SDS011;26164;51.138;16.952;2023-01-30T13:28:13;10.73;;;3.75;;
40459;SDS011;26164;51.138;16.952;2023-01-30T13:30:44;9.43;;;3.05;;
40459;SDS011;26164;51.138;16.952;2023-01-30T13:33:13;8.75;;;3.80;;
40459;SDS011;26164;51.138;16.952;2023-01-30T13:41:23;6.57;;;2.03;;
40459;SDS011;26164;51.138;16.952;2023-01-30T13:43:50;7.03;;;2.83;;
40459;SDS011;26164;51.138;16.952;2023-01-30T13:46:21;6.65;;;2.80;;
40459;SDS011;26164;51.138;16.952;2023-01-30T14:10:55;7.65;;;2.47;;
40459;SDS011;26164;51.138;16.952;2023-01-30T14:13:22;6.90;;;2.65;;
40459;SDS011;26164;51.138;16.952;2023-01-30T14:15:57;8.52;;;2.38;;
40459;SDS011;26164;51.138;16.952;2023-01-30T14:18:34;6.15;;;2.35;;
40459;SDS011;26164;51.138;16.952;2023-01-30T14:21:13;7.65;;;2.53;;
40459;SDS011;26164;51.138;16.952;2023-01-30T14:23:54;8.75;;;3.28;;
40459;SDS011;26164;51.138;16.952;2023-01-30T14:34:44;5.53;;;1.75;;
40459;SDS011;26164;51.138;16.952;2023-01-30T14:39:52;7.30;;;2.08;;
40459;SDS011;26164;51.138;16.952;2023-01-30T14:42:21;6.30;;;2.50;;
40459;SDS011;26164;51.138;16.952;2023-01-30T14:47:25;5.47;;;2.08;;
40459;SDS011;26164;51.138;16.952;2023-01-30T14:49:52;5.80;;;1.92;;
40459;SDS011;26164;51.138;16.952;2023-01-30T14:55:04;7.10;;;1.95;;
40459;SDS011;26164;51.138;16.952;2023-01-30T14:57:40;6.43;;;2.17;;
40459;SDS011;26164;51.138;16.952;2023-01-30T15:00:17;4.70;;;1.90;;
40459;SDS011;26164;51.138;16.952;2023-01-30T15:02:49;7.93;;;2.42;;
40459;SDS011;26164;51.138;16.952;2023-01-30T15:05:18;9.30;;;2.30;;
40459;SDS011;26164;51.138;16.952;2023-01-30T15:13:43;9.32;;;1.90;;
40459;SDS011;26164;51.138;16.952;2023-01-30T15:24:47;6.60;;;1.90;;
40459;SDS011;26164;51.138;16.952;2023-01-30T15:30:00;7.20;;;2.58;;
40459;SDS011;26164;51.138;16.952;2023-01-30T15:32:38;8.02;;;2.33;;
40459;SDS011;26164;51.138;16.952;2023-01-30T15:37:51;9.77;;;3.00;;
40459;SDS011;26164;51.138;16.952;2023-01-30T15:40:20;12.30;;;3.55;;
40459;SDS011;26164;51.138;16.952;2023-01-30T15:45:39;9.48;;;2.03;;
40459;SDS011;26164;51.138;16.952;2023-01-30T15:48:39;10.05;;;2.92;;
40459;SDS011;26164;51.138;16.952;2023-01-30T15:51:14;7.18;;;2.40;;
40459;SDS011;26164;51.138;16.952;2023-01-30T15:53:43;10.80;;;3.05;;
40459;SDS011;26164;51.138;16.952;2023-01-30T15:56:16;7.28;;;2.25;;
40459;SDS011;26164;51.138;16.952;2023-01-30T15:58:46;8.98;;;2.75;;
40459;SDS011;26164;51.138;16.952;2023-01-30T16:01:16;7.25;;;2.25;;
40459;SDS011;26164;51.138;16.952;2023-01-30T16:03:44;9.13;;;2.95;;
40459;SDS011;26164;51.138;16.952;2023-01-30T16:06:21;9.82;;;2.90;;
40459;SDS011;26164;51.138;16.952;2023-01-30T16:08:56;8.07;;;2.80;;
40459;SDS011;26164;51.138;16.952;2023-01-30T16:11:31;6.40;;;2.60;;
40459;SDS011;26164;51.138;16.952;2023-01-30T16:14:01;9.50;;;2.80;;
40459;SDS011;26164;51.138;16.952;2023-01-30T16:16:27;8.60;;;2.88;;
40459;SDS011;26164;51.138;16.952;2023-01-30T16:18:56;9.50;;;2.83;;
40459;SDS011;26164;51.138;16.952;2023-01-30T16:21:27;8.88;;;2.70;;
40459;SDS011;26164;51.138;16.952;2023-01-30T16:24:15;8.10;;;2.70;;
40459;SDS011;26164;51.138;16.952;2023-01-30T16:26:47;13.18;;;3.00;;
40459;SDS011;26164;51.138;16.952;2023-01-30T16:29:16;7.85;;;2.50;;
40459;SDS011;26164;51.138;16.952;2023-01-30T16:31:45;14.52;;;2.88;;
40459;SDS011;26164;51.138;16.952;2023-01-30T16:34:31;8.82;;;2.67;;
40459;SDS011;26164;51.138;16.952;2023-01-30T16:37:05;6.93;;;2.08;;
40459;SDS011;26164;51.138;16.952;2023-01-30T16:39:43;9.38;;;2.88;;
40459;SDS011;26164;51.138;16.952;2023-01-30T16:42:31;8.93;;;2.17;;
40459;SDS011;26164;51.138;16.952;2023-01-30T16:50:45;5.55;;;1.63;;
40459;SDS011;26164;51.138;16.952;2023-01-30T16:53:13;6.72;;;2.22;;
40459;SDS011;26164;51.138;16.952;2023-01-30T16:56:06;5.30;;;2.08;;
40459;SDS011;26164;51.138;16.952;2023-01-30T16:58:34;7.35;;;1.88;;
40459;SDS011;26164;51.138;16.952;2023-01-30T17:01:03;10.13;;;2.20;;
40459;SDS011;26164;51.138;16.952;2023-01-30T17:03:32;13.90;;;2.83;;
40459;SDS011;26164;51.138;16.952;2023-01-30T17:06:03;8.20;;;2.25;;
40459;SDS011;26164;51.138;16.952;2023-01-30T17:08:52;14.20;;;3.03;;
40459;SDS011;26164;51.138;16.952;2023-01-30T17:11:39;10.75;;;2.70;;
40459;SDS011;26164;51.138;16.952;2023-01-30T17:14:15;8.27;;;2.38;;
40459;SDS011;26164;51.138;16.952;2023-01-30T17:16:44;8.05;;;2.55;;